sensor_id;sensor_type;location;lat;lon;timestamp;P1;durP1;ratioP1;P2;durP2;ratioP2
16272;SDS011;8244;50.044;9.006;2023-02-03T00:01:42;9.27;;;3.10;;
16272;SDS011;8244;50.044;9.006;2023-02-03T00:06:44;8.75;;;3.30;;
16272;SDS011;8244;50.044;9.006;2023-02-03T00:11:47;12.00;;;3.28;;
16272;SDS011;8244;50.044;9.006;2023-02-03T00:16:49;8.73;;;3.10;;
16272;SDS011;8244;50.044;9.006;2023-02-03T00:21:50;8.70;;;2.92;;
16272;SDS011;8244;50.044;9.006;2023-02-03T00:26:53;8.20;;;3.17;;
16272;SDS011;8244;50.044;9.006;2023-02-03T00:31:55;8.90;;;3.40;;
16272;SDS011;8244;50.044;9.006;2023-02-03T00:36:57;10.80;;;3.20;;
16272;SDS011;8244;50.044;9.006;2023-02-03T00:42:00;8.35;;;2.97;;
16272;SDS011;8244;50.044;9.006;2023-02-03T00:47:03;7.93;;;2.72;;
16272;SDS011;8244;50.044;9.006;2023-02-03T00:52:04;9.48;;;3.88;;
16272;SDS011;8244;50.044;9.006;2023-02-03T00:57:07;9.40;;;3.42;;
16272;SDS011;8244;50.044;9.006;2023-02-03T01:02:09;7.45;;;3.03;;
16272;SDS011;8244;50.044;9.006;2023-02-03T01:07:11;11.48;;;3.20;;
16272;SDS011;8244;50.044;9.006;2023-02-03T01:12:14;9.68;;;3.15;;
16272;SDS011;8244;50.044;9.006;2023-02-03T01:17:16;9.18;;;2.90;;
16272;SDS011;8244;50.044;9.006;2023-02-03T01:22:17;8.07;;;3.10;;
16272;SDS011;8244;50.044;9.006;2023-02-03T01:27:21;8.23;;;2.60;;
16272;SDS011;8244;50.044;9.006;2023-02-03T01:32:22;8.85;;;2.90;;
16272;SDS011;8244;50.044;9.006;2023-02-03T01:37:24;8.05;;;2.00;;
16272;SDS011;8244;50.044;9.006;2023-02-03T01:42:27;6.20;;;2.67;;
16272;SDS011;8244;50.044;9.006;2023-02-03T01:47:33;7.03;;;2.45;;
16272;SDS011;8244;50.044;9.006;2023-02-03T01:52:37;6.30;;;3.22;;
16272;SDS011;8244;50.044;9.006;2023-02-03T01:57:44;5.65;;;2.30;;
16272;SDS011;8244;50.044;9.006;2023-02-03T02:02:47;6.03;;;2.30;;
16272;SDS011;8244;50.044;9.006;2023-02-03T02:07:50;4.60;;;2.03;;
16272;SDS011;8244;50.044;9.006;2023-02-03T02:12:54;4.63;;;2.15;;
16272;SDS011;8244;50.044;9.006;2023-02-03T02:18:01;4.32;;;2.13;;
16272;SDS011;8244;50.044;9.006;2023-02-03T02:23:32;5.85;;;2.13;;
16272;SDS011;8244;50.044;9.006;2023-02-03T02:28:57;3.55;;;2.05;;
16272;SDS011;8244;50.044;9.006;2023-02-03T02:34:16;4.43;;;1.70;;
16272;SDS011;8244;50.044;9.006;2023-02-03T02:39:28;4.60;;;2.00;;
16272;SDS011;8244;50.044;9.006;2023-02-03T02:44:34;4.60;;;2.00;;
16272;SDS011;8244;50.044;9.006;2023-02-03T02:49:43;5.55;;;2.28;;
16272;SDS011;8244;50.044;9.006;2023-02-03T02:54:51;4.75;;;1.92;;
16272;SDS011;8244;50.044;9.006;2023-02-03T02:59:56;6.30;;;2.08;;
16272;SDS011;8244;50.044;9.006;2023-02-03T03:04:59;4.00;;;1.88;;
16272;SDS011;8244;50.044;9.006;2023-02-03T03:10:04;5.75;;;2.10;;
16272;SDS011;8244;50.044;9.006;2023-02-03T03:15:11;4.32;;;2.10;;
16272;SDS011;8244;50.044;9.006;2023-02-03T03:20:20;3.13;;;1.80;;
16272;SDS011;8244;50.044;9.006;2023-02-03T03:25:26;4.53;;;2.05;;
16272;SDS011;8244;50.044;9.006;2023-02-03T03:30:32;5.55;;;2.10;;
16272;SDS011;8244;50.044;9.006;2023-02-03T03:35:37;3.92;;;1.88;;
16272;SDS011;8244;50.044;9.006;2023-02-03T03:40:45;5.05;;;1.90;;
16272;SDS011;8244;50.044;9.006;2023-02-03T03:45:52;3.80;;;1.98;;
16272;SDS011;8244;50.044;9.006;2023-02-03T03:51:01;4.05;;;1.98;;
16272;SDS011;8244;50.044;9.006;2023-02-03T03:56:05;4.85;;;1.92;;
16272;SDS011;8244;50.044;9.006;2023-02-03T04:01:09;2.40;;;1.70;;
16272;SDS011;8244;50.044;9.006;2023-02-03T04:06:16;2.83;;;1.73;;
16272;SDS011;8244;50.044;9.006;2023-02-03T04:11:18;4.70;;;1.85;;
16272;SDS011;8244;50.044;9.006;2023-02-03T04:16:33;3.40;;;1.80;;
16272;SDS011;8244;50.044;9.006;2023-02-03T04:21:36;2.90;;;1.80;;
16272;SDS011;8244;50.044;9.006;2023-02-03T04:26:38;2.80;;;1.80;;
16272;SDS011;8244;50.044;9.006;2023-02-03T04:31:40;7.32;;;2.45;;
16272;SDS011;8244;50.044;9.006;2023-02-03T04:36:43;4.03;;;2.30;;
16272;SDS011;8244;50.044;9.006;2023-02-03T04:41:44;3.00;;;2.13;;
16272;SDS011;8244;50.044;9.006;2023-02-03T04:46:46;2.53;;;1.98;;
16272;SDS011;8244;50.044;9.006;2023-02-03T04:51:49;4.65;;;2.30;;
16272;SDS011;8244;50.044;9.006;2023-02-03T04:56:51;3.25;;;1.80;;
16272;SDS011;8244;50.044;9.006;2023-02-03T05:01:53;3.55;;;1.85;;
16272;SDS011;8244;50.044;9.006;2023-02-03T05:06:56;2.75;;;2.00;;
16272;SDS011;8244;50.044;9.006;2023-02-03T05:11:57;5.78;;;2.20;;
16272;SDS011;8244;50.044;9.006;2023-02-03T05:16:59;3.13;;;1.80;;
16272;SDS011;8244;50.044;9.006;2023-02-03T05:22:02;2.20;;;1.70;;
16272;SDS011;8244;50.044;9.006;2023-02-03T05:27:03;3.67;;;2.40;;
16272;SDS011;8244;50.044;9.006;2023-02-03T05:32:05;2.55;;;1.77;;
16272;SDS011;8244;50.044;9.006;2023-02-03T05:37:08;3.55;;;2.30;;
16272;SDS011;8244;50.044;9.006;2023-02-03T05:42:10;4.22;;;1.77;;
16272;SDS011;8244;50.044;9.006;2023-02-03T05:47:11;6.72;;;2.10;;
16272;SDS011;8244;50.044;9.006;2023-02-03T05:52:14;3.28;;;1.70;;
16272;SDS011;8244;50.044;9.006;2023-02-03T05:57:17;1.48;;;1.30;;
16272;SDS011;8244;50.044;9.006;2023-02-03T06:02:18;3.33;;;1.58;;
16272;SDS011;8244;50.044;9.006;2023-02-03T06:07:21;3.35;;;2.10;;
16272;SDS011;8244;50.044;9.006;2023-02-03T06:12:23;5.43;;;2.20;;
16272;SDS011;8244;50.044;9.006;2023-02-03T06:17:25;4.68;;;1.90;;
16272;SDS011;8244;50.044;9.006;2023-02-03T06:22:27;4.22;;;1.60;;
16272;SDS011;8244;50.044;9.006;2023-02-03T06:27:29;4.63;;;2.30;;
16272;SDS011;8244;50.044;9.006;2023-02-03T06:32:31;5.32;;;2.20;;
16272;SDS011;8244;50.044;9.006;2023-02-03T06:37:34;3.80;;;2.00;;
16272;SDS011;8244;50.044;9.006;2023-02-03T06:42:36;5.40;;;2.22;;
16272;SDS011;8244;50.044;9.006;2023-02-03T06:47:38;6.43;;;2.47;;
16272;SDS011;8244;50.044;9.006;2023-02-03T06:52:41;5.97;;;2.45;;
16272;SDS011;8244;50.044;9.006;2023-02-03T06:57:43;3.70;;;2.08;;
16272;SDS011;8244;50.044;9.006;2023-02-03T07:02:49;3.88;;;2.00;;
16272;SDS011;8244;50.044;9.006;2023-02-03T07:07:55;3.75;;;2.30;;
16272;SDS011;8244;50.044;9.006;2023-02-03T07:13:00;7.15;;;3.13;;
16272;SDS011;8244;50.044;9.006;2023-02-03T07:18:03;9.00;;;2.95;;
16272;SDS011;8244;50.044;9.006;2023-02-03T07:23:06;6.45;;;3.03;;
16272;SDS011;8244;50.044;9.006;2023-02-03T07:28:08;7.63;;;2.70;;
16272;SDS011;8244;50.044;9.006;2023-02-03T07:33:10;4.25;;;2.25;;
16272;SDS011;8244;50.044;9.006;2023-02-03T07:38:13;4.45;;;2.33;;
16272;SDS011;8244;50.044;9.006;2023-02-03T07:43:15;7.97;;;2.30;;
16272;SDS011;8244;50.044;9.006;2023-02-03T07:48:16;4.03;;;2.25;;
16272;SDS011;8244;50.044;9.006;2023-02-03T07:53:19;5.25;;;2.35;;
16272;SDS011;8244;50.044;9.006;2023-02-03T07:58:21;5.85;;;2.40;;
16272;SDS011;8244;50.044;9.006;2023-02-03T08:03:22;5.88;;;2.75;;
16272;SDS011;8244;50.044;9.006;2023-02-03T08:08:26;3.10;;;2.17;;
16272;SDS011;8244;50.044;9.006;2023-02-03T08:13:27;4.47;;;2.97;;
16272;SDS011;8244;50.044;9.006;2023-02-03T08:18:29;3.80;;;2.00;;
16272;SDS011;8244;50.044;9.006;2023-02-03T08:23:32;6.57;;;2.60;;
16272;SDS011;8244;50.044;9.006;2023-02-03T08:28:33;5.38;;;2.65;;
16272;SDS011;8244;50.044;9.006;2023-02-03T08:33:35;6.47;;;2.33;;
16272;SDS011;8244;50.044;9.006;2023-02-03T08:38:38;5.10;;;2.67;;
16272;SDS011;8244;50.044;9.006;2023-02-03T08:43:40;4.93;;;2.20;;
16272;SDS011;8244;50.044;9.006;2023-02-03T08:48:42;6.30;;;2.00;;
16272;SDS011;8244;50.044;9.006;2023-02-03T08:53:45;8.00;;;2.67;;
16272;SDS011;8244;50.044;9.006;2023-02-03T08:58:47;4.30;;;1.80;;
16272;SDS011;8244;50.044;9.006;2023-02-03T09:03:48;3.58;;;2.00;;
16272;SDS011;8244;50.044;9.006;2023-02-03T09:08:51;3.38;;;2.20;;
16272;SDS011;8244;50.044;9.006;2023-02-03T09:13:53;3.50;;;1.98;;
16272;SDS011;8244;50.044;9.006;2023-02-03T09:18:56;5.10;;;2.00;;
16272;SDS011;8244;50.044;9.006;2023-02-03T09:24:00;5.85;;;2.30;;
16272;SDS011;8244;50.044;9.006;2023-02-03T09:29:02;3.38;;;2.03;;
16272;SDS011;8244;50.044;9.006;2023-02-03T09:34:04;5.22;;;1.70;;
16272;SDS011;8244;50.044;9.006;2023-02-03T09:39:07;4.70;;;1.90;;
16272;SDS011;8244;50.044;9.006;2023-02-03T09:44:10;3.92;;;1.77;;
16272;SDS011;8244;50.044;9.006;2023-02-03T09:49:15;4.78;;;1.85;;
16272;SDS011;8244;50.044;9.006;2023-02-03T09:54:25;3.90;;;1.80;;
16272;SDS011;8244;50.044;9.006;2023-02-03T09:59:33;5.32;;;2.05;;
16272;SDS011;8244;50.044;9.006;2023-02-03T10:04:36;2.78;;;1.45;;
16272;SDS011;8244;50.044;9.006;2023-02-03T10:09:46;4.68;;;1.70;;
16272;SDS011;8244;50.044;9.006;2023-02-03T10:15:02;5.05;;;1.70;;
16272;SDS011;8244;50.044;9.006;2023-02-03T10:20:19;3.72;;;1.40;;
16272;SDS011;8244;50.044;9.006;2023-02-03T10:25:28;2.78;;;1.70;;
16272;SDS011;8244;50.044;9.006;2023-02-03T10:30:37;6.88;;;1.90;;
16272;SDS011;8244;50.044;9.006;2023-02-03T10:35:46;2.65;;;1.40;;
16272;SDS011;8244;50.044;9.006;2023-02-03T10:40:52;6.82;;;2.10;;
16272;SDS011;8244;50.044;9.006;2023-02-03T10:45:53;4.95;;;2.00;;
16272;SDS011;8244;50.044;9.006;2023-02-03T10:50:55;3.88;;;1.60;;
16272;SDS011;8244;50.044;9.006;2023-02-03T10:56:03;4.20;;;1.60;;
16272;SDS011;8244;50.044;9.006;2023-02-03T11:01:08;2.28;;;1.30;;
16272;SDS011;8244;50.044;9.006;2023-02-03T11:06:13;3.42;;;1.45;;
16272;SDS011;8244;50.044;9.006;2023-02-03T11:11:20;5.75;;;2.10;;
16272;SDS011;8244;50.044;9.006;2023-02-03T11:16:23;3.05;;;1.60;;
16272;SDS011;8244;50.044;9.006;2023-02-03T11:21:26;4.85;;;1.65;;
16272;SDS011;8244;50.044;9.006;2023-02-03T11:26:33;3.83;;;1.42;;
16272;SDS011;8244;50.044;9.006;2023-02-03T11:31:37;3.38;;;1.50;;
16272;SDS011;8244;50.044;9.006;2023-02-03T11:36:38;2.15;;;1.42;;
16272;SDS011;8244;50.044;9.006;2023-02-03T11:41:41;4.07;;;2.00;;
16272;SDS011;8244;50.044;9.006;2023-02-03T11:46:43;3.15;;;1.35;;
16272;SDS011;8244;50.044;9.006;2023-02-03T11:51:47;4.50;;;1.75;;
16272;SDS011;8244;50.044;9.006;2023-02-03T11:57:07;2.40;;;1.30;;
16272;SDS011;8244;50.044;9.006;2023-02-03T12:02:29;4.18;;;1.50;;
16272;SDS011;8244;50.044;9.006;2023-02-03T12:07:48;1.90;;;0.80;;
16272;SDS011;8244;50.044;9.006;2023-02-03T12:13:03;4.03;;;1.10;;
16272;SDS011;8244;50.044;9.006;2023-02-03T12:18:27;3.42;;;1.30;;
16272;SDS011;8244;50.044;9.006;2023-02-03T12:23:40;3.95;;;1.30;;
16272;SDS011;8244;50.044;9.006;2023-02-03T12:28:57;3.97;;;1.50;;
16272;SDS011;8244;50.044;9.006;2023-02-03T12:34:04;1.60;;;1.10;;
16272;SDS011;8244;50.044;9.006;2023-02-03T12:39:14;2.38;;;1.13;;
16272;SDS011;8244;50.044;9.006;2023-02-03T12:44:23;4.75;;;1.35;;
16272;SDS011;8244;50.044;9.006;2023-02-03T12:49:32;6.75;;;1.50;;
16272;SDS011;8244;50.044;9.006;2023-02-03T12:54:41;4.18;;;1.13;;
16272;SDS011;8244;50.044;9.006;2023-02-03T12:59:55;4.93;;;1.40;;
16272;SDS011;8244;50.044;9.006;2023-02-03T13:05:04;2.45;;;1.15;;
16272;SDS011;8244;50.044;9.006;2023-02-03T13:10:16;1.73;;;1.20;;
16272;SDS011;8244;50.044;9.006;2023-02-03T13:15:26;2.67;;;1.30;;
16272;SDS011;8244;50.044;9.006;2023-02-03T13:20:31;3.28;;;1.20;;
16272;SDS011;8244;50.044;9.006;2023-02-03T13:25:38;2.15;;;1.30;;
16272;SDS011;8244;50.044;9.006;2023-02-03T13:30:57;2.53;;;1.23;;
16272;SDS011;8244;50.044;9.006;2023-02-03T13:36:22;1.63;;;1.13;;
16272;SDS011;8244;50.044;9.006;2023-02-03T13:41:41;6.22;;;1.30;;
16272;SDS011;8244;50.044;9.006;2023-02-03T13:46:51;1.92;;;1.20;;
16272;SDS011;8244;50.044;9.006;2023-02-03T13:51:53;3.45;;;1.55;;
16272;SDS011;8244;50.044;9.006;2023-02-03T13:56:56;3.03;;;1.35;;
16272;SDS011;8244;50.044;9.006;2023-02-03T14:07:40;2.95;;;1.40;;
16272;SDS011;8244;50.044;9.006;2023-02-03T14:23:34;3.55;;;1.42;;
16272;SDS011;8244;50.044;9.006;2023-02-03T14:28:42;3.92;;;1.60;;
16272;SDS011;8244;50.044;9.006;2023-02-03T14:44:50;3.45;;;2.20;;
16272;SDS011;8244;50.044;9.006;2023-02-03T14:50:04;2.70;;;1.38;;
16272;SDS011;8244;50.044;9.006;2023-02-03T14:55:24;2.50;;;1.40;;
16272;SDS011;8244;50.044;9.006;2023-02-03T15:00:34;1.52;;;1.40;;
16272;SDS011;8244;50.044;9.006;2023-02-03T15:05:39;3.03;;;1.70;;
16272;SDS011;8244;50.044;9.006;2023-02-03T15:10:41;3.17;;;1.42;;
16272;SDS011;8244;50.044;9.006;2023-02-03T15:15:45;3.55;;;1.92;;
16272;SDS011;8244;50.044;9.006;2023-02-03T15:20:52;3.40;;;1.90;;
16272;SDS011;8244;50.044;9.006;2023-02-03T15:25:56;2.72;;;1.77;;
16272;SDS011;8244;50.044;9.006;2023-02-03T15:31:00;4.65;;;2.13;;
16272;SDS011;8244;50.044;9.006;2023-02-03T15:36:07;6.57;;;2.40;;
16272;SDS011;8244;50.044;9.006;2023-02-03T15:41:16;2.42;;;1.42;;
16272;SDS011;8244;50.044;9.006;2023-02-03T15:46:23;3.20;;;1.90;;
16272;SDS011;8244;50.044;9.006;2023-02-03T15:51:30;3.78;;;2.20;;
16272;SDS011;8244;50.044;9.006;2023-02-03T15:56:36;2.75;;;1.92;;
16272;SDS011;8244;50.044;9.006;2023-02-03T16:01:41;3.90;;;1.73;;
16272;SDS011;8244;50.044;9.006;2023-02-03T16:06:44;3.72;;;1.98;;
16272;SDS011;8244;50.044;9.006;2023-02-03T16:11:49;4.93;;;2.30;;
16272;SDS011;8244;50.044;9.006;2023-02-03T16:16:51;8.70;;;2.20;;
16272;SDS011;8244;50.044;9.006;2023-02-03T16:21:55;5.47;;;2.00;;
16272;SDS011;8244;50.044;9.006;2023-02-03T16:32:36;3.75;;;1.90;;
16272;SDS011;8244;50.044;9.006;2023-02-03T16:38:03;3.33;;;1.90;;
16272;SDS011;8244;50.044;9.006;2023-02-03T16:43:23;3.08;;;1.55;;
16272;SDS011;8244;50.044;9.006;2023-02-03T16:48:43;2.67;;;1.65;;
16272;SDS011;8244;50.044;9.006;2023-02-03T16:54:03;3.28;;;1.88;;
16272;SDS011;8244;50.044;9.006;2023-02-03T16:59:05;3.92;;;2.10;;
16272;SDS011;8244;50.044;9.006;2023-02-03T17:04:07;3.75;;;2.67;;
16272;SDS011;8244;50.044;9.006;2023-02-03T17:09:11;3.20;;;2.30;;
16272;SDS011;8244;50.044;9.006;2023-02-03T17:14:12;3.38;;;2.20;;
16272;SDS011;8244;50.044;9.006;2023-02-03T17:19:14;6.32;;;2.72;;
16272;SDS011;8244;50.044;9.006;2023-02-03T17:24:17;3.67;;;2.03;;
16272;SDS011;8244;50.044;9.006;2023-02-03T17:29:19;4.75;;;2.88;;
16272;SDS011;8244;50.044;9.006;2023-02-03T17:34:21;7.55;;;4.32;;
16272;SDS011;8244;50.044;9.006;2023-02-03T17:39:24;4.07;;;3.08;;
16272;SDS011;8244;50.044;9.006;2023-02-03T17:44:26;4.70;;;3.10;;
16272;SDS011;8244;50.044;9.006;2023-02-03T17:49:28;4.85;;;2.95;;
16272;SDS011;8244;50.044;9.006;2023-02-03T17:54:31;5.05;;;3.13;;
16272;SDS011;8244;50.044;9.006;2023-02-03T17:59:33;5.55;;;3.10;;
16272;SDS011;8244;50.044;9.006;2023-02-03T18:04:36;6.88;;;2.95;;
16272;SDS011;8244;50.044;9.006;2023-02-03T18:09:39;5.63;;;3.20;;
16272;SDS011;8244;50.044;9.006;2023-02-03T18:14:41;5.25;;;3.53;;
16272;SDS011;8244;50.044;9.006;2023-02-03T18:19:42;6.72;;;3.65;;
16272;SDS011;8244;50.044;9.006;2023-02-03T18:24:45;6.97;;;4.07;;
16272;SDS011;8244;50.044;9.006;2023-02-03T18:29:50;7.85;;;4.30;;
16272;SDS011;8244;50.044;9.006;2023-02-03T18:34:52;11.07;;;4.40;;
16272;SDS011;8244;50.044;9.006;2023-02-03T18:39:55;10.85;;;4.47;;
16272;SDS011;8244;50.044;9.006;2023-02-03T18:44:56;8.35;;;4.75;;
16272;SDS011;8244;50.044;9.006;2023-02-03T18:49:59;8.60;;;4.80;;
16272;SDS011;8244;50.044;9.006;2023-02-03T18:55:02;8.77;;;4.70;;
16272;SDS011;8244;50.044;9.006;2023-02-03T19:00:04;10.18;;;3.95;;
16272;SDS011;8244;50.044;9.006;2023-02-03T19:05:07;10.32;;;3.45;;
16272;SDS011;8244;50.044;9.006;2023-02-03T19:10:12;9.43;;;3.00;;
16272;SDS011;8244;50.044;9.006;2023-02-03T19:15:13;10.02;;;3.50;;
16272;SDS011;8244;50.044;9.006;2023-02-03T19:20:15;9.60;;;2.40;;
16272;SDS011;8244;50.044;9.006;2023-02-03T19:25:18;13.70;;;3.60;;
16272;SDS011;8244;50.044;9.006;2023-02-03T19:30:20;12.15;;;3.15;;
16272;SDS011;8244;50.044;9.006;2023-02-03T19:35:22;10.77;;;2.90;;
16272;SDS011;8244;50.044;9.006;2023-02-03T19:40:25;10.02;;;2.80;;
16272;SDS011;8244;50.044;9.006;2023-02-03T19:45:27;12.25;;;2.67;;
16272;SDS011;8244;50.044;9.006;2023-02-03T19:50:28;11.95;;;2.97;;
16272;SDS011;8244;50.044;9.006;2023-02-03T19:55:31;14.95;;;3.22;;
16272;SDS011;8244;50.044;9.006;2023-02-03T20:00:33;13.40;;;3.22;;
16272;SDS011;8244;50.044;9.006;2023-02-03T20:05:35;18.25;;;3.97;;
16272;SDS011;8244;50.044;9.006;2023-02-03T20:10:38;16.08;;;3.38;;
16272;SDS011;8244;50.044;9.006;2023-02-03T20:15:40;12.18;;;3.20;;
16272;SDS011;8244;50.044;9.006;2023-02-03T20:20:48;11.70;;;3.42;;
16272;SDS011;8244;50.044;9.006;2023-02-03T20:25:51;12.00;;;2.90;;
16272;SDS011;8244;50.044;9.006;2023-02-03T20:30:54;14.20;;;3.47;;
16272;SDS011;8244;50.044;9.006;2023-02-03T20:35:57;13.60;;;4.15;;
16272;SDS011;8244;50.044;9.006;2023-02-03T20:41:00;17.52;;;3.63;;
16272;SDS011;8244;50.044;9.006;2023-02-03T20:46:02;16.17;;;3.00;;
16272;SDS011;8244;50.044;9.006;2023-02-03T20:51:09;15.90;;;3.22;;
16272;SDS011;8244;50.044;9.006;2023-02-03T20:56:13;17.13;;;3.92;;
16272;SDS011;8244;50.044;9.006;2023-02-03T21:01:18;15.27;;;3.63;;
16272;SDS011;8244;50.044;9.006;2023-02-03T21:06:21;17.08;;;3.65;;
16272;SDS011;8244;50.044;9.006;2023-02-03T21:11:24;15.52;;;4.05;;
16272;SDS011;8244;50.044;9.006;2023-02-03T21:16:28;14.77;;;3.83;;
16272;SDS011;8244;50.044;9.006;2023-02-03T21:21:35;13.70;;;3.28;;
16272;SDS011;8244;50.044;9.006;2023-02-03T21:26:40;16.00;;;3.75;;
16272;SDS011;8244;50.044;9.006;2023-02-03T21:31:42;11.90;;;3.17;;
16272;SDS011;8244;50.044;9.006;2023-02-03T21:36:45;18.02;;;4.10;;
16272;SDS011;8244;50.044;9.006;2023-02-03T21:41:48;19.58;;;3.40;;
16272;SDS011;8244;50.044;9.006;2023-02-03T21:46:49;15.30;;;3.90;;
16272;SDS011;8244;50.044;9.006;2023-02-03T21:51:51;15.10;;;3.58;;
16272;SDS011;8244;50.044;9.006;2023-02-03T21:56:54;18.85;;;4.13;;
16272;SDS011;8244;50.044;9.006;2023-02-03T22:01:56;10.85;;;3.30;;
16272;SDS011;8244;50.044;9.006;2023-02-03T22:06:57;22.55;;;3.78;;
16272;SDS011;8244;50.044;9.006;2023-02-03T22:12:00;18.98;;;4.10;;
16272;SDS011;8244;50.044;9.006;2023-02-03T22:17:02;17.05;;;3.78;;
16272;SDS011;8244;50.044;9.006;2023-02-03T22:22:04;17.25;;;3.58;;
16272;SDS011;8244;50.044;9.006;2023-02-03T22:27:07;16.98;;;3.20;;
16272;SDS011;8244;50.044;9.006;2023-02-03T22:32:08;14.90;;;3.28;;
16272;SDS011;8244;50.044;9.006;2023-02-03T22:37:10;20.02;;;3.63;;
16272;SDS011;8244;50.044;9.006;2023-02-03T22:42:13;18.60;;;3.65;;
16272;SDS011;8244;50.044;9.006;2023-02-03T22:47:16;17.83;;;3.35;;
16272;SDS011;8244;50.044;9.006;2023-02-03T22:52:18;17.20;;;3.55;;
16272;SDS011;8244;50.044;9.006;2023-02-03T22:57:21;18.98;;;3.95;;
16272;SDS011;8244;50.044;9.006;2023-02-03T23:02:22;15.35;;;3.95;;
16272;SDS011;8244;50.044;9.006;2023-02-03T23:07:24;16.25;;;3.20;;
16272;SDS011;8244;50.044;9.006;2023-02-03T23:12:27;15.82;;;4.22;;
16272;SDS011;8244;50.044;9.006;2023-02-03T23:17:29;18.63;;;3.70;;
16272;SDS011;8244;50.044;9.006;2023-02-03T23:22:30;18.88;;;3.70;;
16272;SDS011;8244;50.044;9.006;2023-02-03T23:27:33;11.88;;;3.17;;
16272;SDS011;8244;50.044;9.006;2023-02-03T23:32:35;14.25;;;3.47;;
16272;SDS011;8244;50.044;9.006;2023-02-03T23:37:37;14.10;;;3.10;;
16272;SDS011;8244;50.044;9.006;2023-02-03T23:42:40;16.77;;;3.95;;
16272;SDS011;8244;50.044;9.006;2023-02-03T23:47:42;16.55;;;4.40;;
16272;SDS011;8244;50.044;9.006;2023-02-03T23:52:44;16.70;;;3.67;;
16272;SDS011;8244;50.044;9.006;2023-02-03T23:57:48;18.33;;;3.60;;
